logo
App data

Mystery P.I. - The Vegas Heist

The heist of the century has just happened! You've been hired by the casino to find & return the stolen money before its grand opening in 16 hours. Search for over 2300 cleverly hidden objects in 25 intriguing locations to solve the Vegas Heist. Two addictive ways to play: Vegas Heist mode and Unlimited Seek & Find mode.
Store | Hub | SteamDB
Developer: SpinTop Games Publisher: PopCap Games, Inc.
Genre: Casual
Languages: English
Tags: Casual (23), Hidden Object (8)
Category: Single-player
Release date: Jun 5, 2008
Price: $1.24 75%
Owners: 20,000 .. 50,000
Followers: 68
Peak concurrent players yesterday: 4

Steam Spy is still in beta, so expect major bugs.

Owners data:

Access restricted.

This feature is only available to users with special access rights. Sorry.

If you want to proceed, you need to register or log in first and then back Steam Spy on Patreon. Look for Indie or Pro pledge.

Don't forget to use the same email as on Steam Spy!

Audience in 2 weeks:

Access restricted.

This feature is only available to users with special access rights. Sorry.

If you want to proceed, you need to register or log in first and then back Steam Spy on Patreon. Look for Indie or Pro pledge.

Don't forget to use the same email as on Steam Spy!

Peak daily concurrent players:

CCU data courtesy of SteamDB. Used with permission.

Hourly concurrent players:

YouTube:

The views data is based on top 50 videos uploaded last week. Actual number of views might be more than the number shown.

The displayed number of videos uploaded yesterday is limited to 50, so if there were more videos uploaded, the number will still show 50.

If the game has commonly used word as its name (like "FEAR" or "Volume") its number of Youtube views might be wrong.

Games similar to this one:

# Game Release date
Price
Score rank
(Userscore / Metascore)
Owners
Players
Playtime (Median)
1 Puppy Dog: Jigsaw Puzzles Jul 19, 2016 $0.49100% (100%)50,000 .. 100,0000.52%00:30 (00:10)
2 Gnomes Garden 2 May 18, 2016 $0.49N/A (N/A)20,000 .. 50,0000%00:00 (00:00)
3 Legends of Atlantis: Exodus Apr 9, 2012 $1.04N/A (N/A)0 .. 20,0000%00:00 (00:00)
4 Peggle Nights Oct 15, 2008 $1.2490% (94%/76%)200,000 .. 500,0001.49%00:15 (00:09)
5 Alice's Patchwork Mar 3, 2016 $0.49N/A (N/A)20,000 .. 50,0001.83%03:49 (03:46)
6 Hidden Object Bundle 4 in 1 Jun 1, 2014 $2.7987% (93%)20,000 .. 50,0000%00:00 (00:00)
7 Princess Maker 2 Refine Sep 28, 2016 $9.9983% (92%)20,000 .. 50,0000%00:00 (00:00)
8 Chuzzle Deluxe Aug 30, 2006 $1.2483% (92%)50,000 .. 100,0000%00:00 (00:00)
9 Zuma Deluxe Aug 30, 2006 $1.2483% (92%)50,000 .. 100,0004.88%01:47 (01:11)
10 YOU DON’T KNOW JACK Feb 8, 2011 N/A83% (92%/71%)0 .. 20,0000%00:00 (00:00)
11 Farm Frenzy 2 Feb 15, 2010 $4.99N/A (N/A)0 .. 20,0000%00:00 (00:00)
12 Bejeweled 2 Deluxe Aug 30, 2006 $1.2479% (91%)50,000 .. 100,0000%00:00 (00:00)
13 Kitty Cat: Jigsaw Puzzles Jul 18, 2016 $0.4976% (90%)50,000 .. 100,0000%00:00 (00:00)
14 Gemini Lost May 6, 2010 $6.99N/A (N/A)0 .. 20,0000%00:00 (00:00)
15 Putt-Putt and Fatty Bear's Activity Pack Mar 25, 1994 $1.99N/A (N/A)0 .. 20,0000%00:00 (00:00)
16 Stikbold! A Dodgeball Adventure Apr 1, 2016 $4.9973% (89%)50,000 .. 100,0000.65%00:01 (00:00)
17 Mr Nibbles Forever Apr 29, 2016 $0.99N/A (N/A)0 .. 20,0000%00:00 (00:00)
18 Hidden Object 6-in-1 bundle Mar 16, 2016 $4.1970% (88%)20,000 .. 50,0000%00:00 (00:00)
19 Luxor 3 Jun 10, 2008 $4.9970% (88%)20,000 .. 50,0000%00:00 (00:00)
20 Baseball Mogul 2015 Apr 3, 2014 $0.99N/A (N/A)20,000 .. 50,0000.98%262:32 (87:30)
21 Shufflepuck Cantina Deluxe Dec 6, 2013 $9.9970% (88%)100,000 .. 200,0000.32%01:16 (00:50)
22 Big Thinkers 1st Grade Aug 18, 2015 $1.95N/A (N/A)0 .. 20,0000%00:00 (00:00)
23 Space Codex May 9, 2016 $0.4967% (87%)50,000 .. 100,0000.61%01:32 (01:01)
24 Puzzler World May 28, 2010 $0.7467% (87%)50,000 .. 100,0000%00:00 (00:00)
25 Among the Heavens Nov 6, 2015 $1.4965% (86%)50,000 .. 100,0000%00:00 (00:00)
26 Plant Tycoon May 12, 2008 $9.99N/A (N/A)0 .. 20,0000%00:00 (00:00)
27 Gnomes Garden Dec 18, 2015 $0.4965% (86%)20,000 .. 50,0000%00:00 (00:00)
28 Pretty Girls Panic! Dec 20, 2016 $0.9965% (86%)20,000 .. 50,0004.55%03:11 (03:32)
29 Little Racers STREET Feb 6, 2014 $1.1959% (84%/62%)100,000 .. 200,0000%00:00 (00:00)
30 Brink of Consciousness: The Lonely Hearts Murders Nov 24, 2014 $4.9959% (84%)0 .. 20,0000%00:00 (00:00)
31 Cranky Cat Jun 5, 2013 $2.99N/A (N/A)0 .. 20,0000%00:00 (00:00)
32 BasketBelle Dec 9, 2014 $1.2457% (83%)0 .. 20,0000%00:00 (00:00)
33 Urban Trial Freestyle Sep 18, 2013 $1.3954% (82%/58%)100,000 .. 200,0000%00:00 (00:00)
34 My Riding Stables: Life with Horses Mar 27, 2014 $2.9954% (82%)0 .. 20,0000%00:00 (00:00)
35 Virtual Villagers - The Secret City May 28, 2008 $9.99N/A (N/A)0 .. 20,0000%00:00 (00:00)
36 Combat Wings: Battle of Britain Oct 14, 2009 $0.7454% (82%)100,000 .. 200,0000.75%00:24 (00:08)
37 Venice Deluxe Jun 25, 2007 $1.24N/A (N/A)20,000 .. 50,0000%00:00 (00:00)
38 Crash Dive Jul 6, 2015 $6.9952% (81%)0 .. 20,0000%00:00 (00:00)
39 7 Wonders: Treasures of Seven Nov 14, 2008 $4.99N/A (N/A)20,000 .. 50,0000%00:00 (00:00)
40 Mahjong Destiny Jun 17, 2016 $0.5950% (80%)50,000 .. 100,0000%00:00 (00:00)
41 Mystery P.I. - Lost in Los Angeles Jul 27, 2009 $1.24N/A (N/A)20,000 .. 50,0000%00:00 (00:00)
42 Radial-G : Racing Revolved Mar 28, 2016 $9.9950% (80%)0 .. 20,0000%00:00 (00:00)
43 Crash Time 3 Nov 25, 2009 $1.4950% (80%)20,000 .. 50,0000%00:00 (00:00)
44 Rotastic Oct 11, 2012 $1.49N/A (N/A)0 .. 20,0000%00:00 (00:00)
45 Typer Shark! Deluxe Aug 30, 2006 $1.2448% (79%)20,000 .. 50,0000%00:00 (00:00)
46 Qvadriga Jun 13, 2014 $4.7946% (78%/72%)20,000 .. 50,0000%00:00 (00:00)
47 The Wizard's Pen Sep 16, 2008 $1.24N/A (N/A)20,000 .. 50,0000%00:00 (00:00)
48 Virtual Villagers: The Lost Children May 12, 2008 $9.99N/A (N/A)0 .. 20,0000%00:00 (00:00)
49 Sea Legends: Phantasmal Light Collector's Edition Jan 15, 2012 $1.2442% (76%)20,000 .. 50,0000%00:00 (00:00)
50 Elementary My Dear Majesty! Nov 15, 2013 $0.49N/A (N/A)20,000 .. 50,0000.91%02:40 (00:53)
51 Pretty Girls Mahjong Solitaire Aug 24, 2015 $0.9940% (75%)20,000 .. 50,0003.81%03:25 (03:55)
52 Ski Region Simulator - Gold Edition Jan 16, 2013 $4.9938% (74%)20,000 .. 50,0000%00:00 (00:00)
53 Zombie Solitaire Nov 15, 2013 $2.6938% (74%)0 .. 20,0000%00:00 (00:00)
54 Cooking Dash Aug 12, 2009 $9.99N/A (N/A)0 .. 20,0000%00:00 (00:00)
55 Amazing Adventures Around the World Apr 15, 2009 $1.24N/A (N/A)20,000 .. 50,0000%00:00 (00:00)
56 Toilet Tycoon Mar 1, 2000 $1.2438% (74%)0 .. 20,0000%00:00 (00:00)
57 Home Design 3D Jan 30, 2015 $2.9936% (73%)20,000 .. 50,0001.65%130:46 (87:00)
58 Monster Mash Jul 17, 2009 $4.99N/A (N/A)0 .. 20,0000%00:00 (00:00)
59 Hotel Dash Suite Success May 6, 2010 $6.99N/A (N/A)0 .. 20,0000%00:00 (00:00)
60 Evolution Planet: Gold Edition Jul 7, 2016 $4.99N/A (N/A)0 .. 20,0000%00:00 (00:00)
61 Football Mogul 2014 Sep 4, 2013 $0.99N/A (N/A)20,000 .. 50,0000%00:00 (00:00)
62 aerofly RC 7 Nov 6, 2014 $35.9933% (71%)0 .. 20,0000%00:00 (00:00)
63 StuntMANIA Reloaded Nov 13, 2014 $1.6931% (70%)20,000 .. 50,0000%00:00 (00:00)
64 Mystery P.I. - The Lottery Ticket Oct 16, 2007 $1.24N/A (N/A)20,000 .. 50,0000%00:00 (00:00)
65 Runaway Express Mystery Sep 23, 2014 $2.44N/A (N/A)0 .. 20,0002.63%00:01 (00:00)
66 Diner Mania Jun 25, 2015 $0.51N/A (N/A)0 .. 20,0000%00:00 (00:00)
67 MiniDrivers Aug 20, 2015 $5.99N/A (N/A)20,000 .. 50,0000%00:00 (00:00)
68 Chocolatier: Decadence by Design Aug 12, 2009 $9.9927% (67%)0 .. 20,0000%00:00 (00:00)
69 Luxor Jun 10, 2008 $4.99N/A (N/A)0 .. 20,0000%00:00 (00:00)
70 Zooloretto Nov 1, 2011 $1.04N/A (N/A)0 .. 20,0000%00:00 (00:00)
71 Pro Cycling Manager 2014 Jun 19, 2014 $2.9923% (64%)20,000 .. 50,0000%00:00 (00:00)
72 PAC-MAN CHAMPIONSHIP EDITION 2 Sep 13, 2016 $3.2423% (64%)20,000 .. 50,0003.23%01:14 (00:40)
73 Castle: Never Judge a Book by its Cover Jul 9, 2013 $4.9922% (63%)20,000 .. 50,0000%00:00 (00:00)
74 Meridian: Age of Invention Jan 28, 2013 $1.04N/A (N/A)20,000 .. 50,0000%00:00 (00:00)
75 City Life 2008 Sep 29, 2008 $1.9922% (63%)20,000 .. 50,0000%00:00 (00:00)
76 Bridge It + Nov 18, 2013 $4.19N/A (N/A)20,000 .. 50,0000%00:00 (00:00)
77 Aerofly FS 1 Flight Simulator Oct 17, 2012 $14.9921% (62%)0 .. 20,0000%00:00 (00:00)
78 Air Conflicts: Secret Wars Sep 30, 2011 $0.8920% (61%/65%)50,000 .. 100,0000%00:00 (00:00)
79 Jane Angel: Templar Mystery Dec 10, 2009 $1.24N/A (N/A)20,000 .. 50,0000%00:00 (00:00)
80 Cities in Motion 2 Apr 2, 2013 $4.9917% (59%/72%)500,000 .. 1,000,0000.69%00:17 (00:29)
81 Hacker Evolution: Untold Sep 14, 2010 $0.9917% (59%)200,000 .. 500,0000.32%01:16 (00:50)
82 DinerTown Tycoon Sep 30, 2009 $9.99N/A (N/A)0 .. 20,0000%00:00 (00:00)
83 Riding Star - Horse Championship! Mar 27, 2014 $2.99N/A (N/A)0 .. 20,0000%00:00 (00:00)
84 Luxor: Quest for the Afterlife Dec 15, 2008 $4.99N/A (N/A)20,000 .. 50,0000%00:00 (00:00)
85 Kumoon : Ballistic Physics Puzzle Nov 10, 2015 $2.99N/A (N/A)0 .. 20,0000%00:00 (00:00)
86 Mystery P.I. - The New York Fortune Jan 28, 2009 $1.24N/A (N/A)20,000 .. 50,0000%00:00 (00:00)
87 Pacific Storm Allies Aug 18, 2008 $0.7912% (53%/60%)50,000 .. 100,0001.23%04:02 (01:20)
88 Poker Pretty Girls Battle: Texas Hold'em Oct 21, 2015 $1.4911% (51%)20,000 .. 50,0002.22%02:25 (01:36)
89 Speed Kills May 16, 2014 $0.9911% (51%)200,000 .. 500,0000.71%56:48 (93:02)
90 Firefighters 2014 May 21, 2014 $7.9910% (49%)50,000 .. 100,0000%00:00 (00:00)
91 300 Dwarves Jun 17, 2013 $3.4910% (49%)0 .. 20,0000%00:00 (00:00)
92 EVEREST VR Aug 2, 2016 $4.499% (47%)0 .. 20,0000%00:00 (00:00)
93 Shannon Tweed's Attack Of The Groupies Apr 1, 2014 $0.99N/A (N/A)0 .. 20,0000%00:00 (00:00)
94 Lords of Football Apr 5, 2013 $3.748% (45%/52%)20,000 .. 50,0000%00:00 (00:00)
95 Transport Giant Jun 8, 2004 $9.998% (45%)100,000 .. 200,0000%00:00 (00:00)
96 Ludo Supremo Jun 8, 2016 $0.598% (45%)20,000 .. 50,0000%00:00 (00:00)
97 Theme Park Studio Dec 2, 2016 $29.997% (44%)20,000 .. 50,0000%00:00 (00:00)
98 Ship Simulator: Maritime Search and Rescue Jul 1, 2014 $7.197% (42%)20,000 .. 50,0000%00:00 (00:00)
99 Luxor 2 Jun 10, 2008 $4.99N/A (N/A)20,000 .. 50,0000%00:00 (00:00)
100 Silent Hunter 5: Battle of the Atlantic Mar 2010 $3.396% (41%/62%)50,000 .. 100,0005.71%04:05 (02:42)
101 Echelon Apr 15, 2001 $0.515% (39%/70%)0 .. 20,0000%00:00 (00:00)
102 Firefighters - The Simulation Sep 18, 2012 $5.09N/A (N/A)0 .. 20,0000%00:00 (00:00)
103 Diner Dash: Hometown Hero Aug 12, 2009 $9.994% (34%)0 .. 20,0000%00:00 (00:00)
104 Industry Empire Jul 30, 2014 $5.993% (31%)20,000 .. 50,0000%00:00 (00:00)
105 Tetris Ultimate Dec 10, 2015 $5.093% (30%)0 .. 20,0000%00:00 (00:00)
106 The Terminal 2 Aug 8, 2014 $1.492% (24%)0 .. 20,0000%00:00 (00:00)
107 G-Ball May 28, 2014 $0.99N/A (N/A)0 .. 20,0000%00:00 (00:00)
108 Airline Tycoon 2 Oct 24, 2011 $2.491% (17%/57%)100,000 .. 200,0000%00:00 (00:00)
109 The Flying Dutchman Sep 12, 2014 $0.741% (3%)0 .. 20,0000%00:00 (00:00)
110 Fantastic 4 In A Row 2 Aug 15, 2016 $0.49N/A (N/A)50,000 .. 100,0000.53%00:01 (00:00)
111 Farm Frenzy 3 Feb 15, 2010 $9.99N/A (N/A)0 .. 20,0000%00:00 (00:00)
112 Bayla Bunny Jun 13, 2016 $0.59N/A (N/A)50,000 .. 100,0000.53%00:30 (00:10)
113 Dessert Storm Oct 23, 2016 $0.49N/A (N/A)20,000 .. 50,0000%00:00 (00:00)
114 Bubble Blowout Oct 24, 2016 $0.49N/A (N/A)20,000 .. 50,0000%00:00 (00:00)
115 Barnyard Mahjong 3 Jul 29, 2016 $0.99N/A (N/A)50,000 .. 100,0000.51%00:12 (00:04)
116 Rush for gold: California Mar 9, 2016 $1.99N/A (N/A)50,000 .. 100,0000%00:00 (00:00)
117 The Hidden Dragon Jul 26, 2016 $0.99N/A (N/A)0 .. 20,0001.04%00:16 (00:10)
118 Tropical Fish Shop 2 Feb 10, 2012 $1.99N/A (N/A)0 .. 20,0000%00:00 (00:00)
119 Chainz 2: Relinked Jul 13, 2009 $4.99N/A (N/A)0 .. 20,0000%00:00 (00:00)
120 Solitaire Christmas. Match 2 Cards Dec 24, 2015 $0.49N/A (N/A)20,000 .. 50,0000%00:00 (00:00)
121 TriJinx: A Kristine Kross Mystery May 6, 2010 $6.99N/A (N/A)0 .. 20,0000%00:00 (00:00)
122 Heartomics: Nokori Mar 25, 2016 $0.99N/A (N/A)0 .. 20,0000%00:00 (00:00)
123 Them - The Summoning May 16, 2014 $1.99N/A (N/A)0 .. 20,0000%00:00 (00:00)
124 Discovery! A Seek and Find Adventure Jul 29, 2008 $4.99N/A (N/A)0 .. 20,0000%00:00 (00:00)

Owners of this game also own:

Access restricted.

This feature is only available to users with special access rights. Sorry.

If you want to proceed, you need to register or log in first and then back Steam Spy on Patreon. Look for Indie or Pro pledge.

Don't forget to use the same email as on Steam Spy!

Playtime distribution:

Access restricted.

This feature is only available to users with special access rights. Sorry.

If you want to proceed, you need to register or log in first and then back Steam Spy on Patreon. Look for Indie or Pro pledge.

Don't forget to use the same email as on Steam Spy!

Playtime (2 weeks):

Access restricted.

This feature is only available to users with special access rights. Sorry.

If you want to proceed, you need to register or log in first and then back Steam Spy on Patreon. Look for Indie or Pro pledge.

Don't forget to use the same email as on Steam Spy!

User reviews:

Login required.

Please register or log in to see this information.